sensor_id;sensor_type;location;lat;lon;timestamp;pressure;altitude;pressure_sealevel;temperature;humidity
79589;BME280;69067;51.930;4.492;2023-07-31T00:00:34;100934.78;;;25.52;47.34
79589;BME280;69067;51.930;4.492;2023-07-31T00:02:59;100934.78;;;25.59;47.88
79589;BME280;69067;51.930;4.492;2023-07-31T00:05:25;100921.78;;;25.61;47.55
79589;BME280;69067;51.930;4.492;2023-07-31T00:07:51;100909.81;;;25.62;47.69
79589;BME280;69067;51.930;4.492;2023-07-31T00:10:17;100919.88;;;25.61;48.19
79589;BME280;69067;51.930;4.492;2023-07-31T00:12:44;100914.66;;;25.60;47.85
79589;BME280;69067;51.930;4.492;2023-07-31T00:15:10;100920.31;;;25.65;47.44
79589;BME280;69067;51.930;4.492;2023-07-31T00:17:36;100920.31;;;25.65;47.67
79589;BME280;69067;51.930;4.492;2023-07-31T00:20:03;100919.06;;;25.61;47.48
79589;BME280;69067;51.930;4.492;2023-07-31T00:22:29;100922.78;;;25.66;47.80
79589;BME280;69067;51.930;4.492;2023-07-31T00:24:56;100901.81;;;25.67;47.77
79589;BME280;69067;51.930;4.492;2023-07-31T00:27:22;100912.28;;;25.70;47.18
79589;BME280;69067;51.930;4.492;2023-07-31T00:29:48;100917.75;;;25.70;47.74
79589;BME280;69067;51.930;4.492;2023-07-31T00:32:14;100917.47;;;25.78;47.41
79589;BME280;69067;51.930;4.492;2023-07-31T00:34:40;100897.91;;;25.81;47.75
79589;BME280;69067;51.930;4.492;2023-07-31T00:37:06;100912.91;;;25.72;48.17
79589;BME280;69067;51.930;4.492;2023-07-31T00:39:34;100906.47;;;25.60;48.08
79589;BME280;69067;51.930;4.492;2023-07-31T00:42:00;100896.91;;;25.75;47.98
79589;BME280;69067;51.930;4.492;2023-07-31T00:44:26;100907.88;;;25.69;47.76
79589;BME280;69067;51.930;4.492;2023-07-31T00:46:53;100915.69;;;25.65;47.82
79589;BME280;69067;51.930;4.492;2023-07-31T00:49:20;100924.03;;;25.70;48.05
79589;BME280;69067;51.930;4.492;2023-07-31T00:51:46;100918.41;;;25.65;48.05
79589;BME280;69067;51.930;4.492;2023-07-31T00:54:12;100912.53;;;25.62;48.18
79589;BME280;69067;51.930;4.492;2023-07-31T00:56:40;100924.91;;;25.64;48.49
79589;BME280;69067;51.930;4.492;2023-07-31T00:59:07;100918.84;;;25.62;48.10
79589;BME280;69067;51.930;4.492;2023-07-31T01:01:33;100921.25;;;25.77;47.72
79589;BME280;69067;51.930;4.492;2023-07-31T01:03:59;100901.22;;;25.65;47.88
79589;BME280;69067;51.930;4.492;2023-07-31T01:06:59;100916.84;;;25.76;47.49
79589;BME280;69067;51.930;4.492;2023-07-31T01:09:47;100914.06;;;25.82;47.52
79589;BME280;69067;51.930;4.492;2023-07-31T01:12:23;100906.09;;;25.81;47.93
79589;BME280;69067;51.930;4.492;2023-07-31T01:15:19;100903.09;;;25.89;47.77
79589;BME280;69067;51.930;4.492;2023-07-31T01:17:46;100885.34;;;25.80;47.92
79589;BME280;69067;51.930;4.492;2023-07-31T01:20:21;100903.03;;;25.71;48.40
79589;BME280;69067;51.930;4.492;2023-07-31T01:26:12;100886.16;;;25.80;47.99
79589;BME280;69067;51.930;4.492;2023-07-31T01:28:47;100898.53;;;25.83;47.41
79589;BME280;69067;51.930;4.492;2023-07-31T01:31:24;100872.63;;;25.67;47.93
79589;BME280;69067;51.930;4.492;2023-07-31T01:33:57;100880.97;;;25.79;47.46
79589;BME280;69067;51.930;4.492;2023-07-31T01:36:26;100879.28;;;25.78;48.12
79589;BME280;69067;51.930;4.492;2023-07-31T01:38:52;100882.44;;;25.75;47.73
79589;BME280;69067;51.930;4.492;2023-07-31T01:41:18;100891.94;;;25.72;48.08
79589;BME280;69067;51.930;4.492;2023-07-31T01:43:45;100866.75;;;25.70;48.21
79589;BME280;69067;51.930;4.492;2023-07-31T01:46:11;100881.81;;;25.73;47.99
79589;BME280;69067;51.930;4.492;2023-07-31T01:48:37;100884.28;;;25.81;47.74
79589;BME280;69067;51.930;4.492;2023-07-31T01:51:03;100870.00;;;25.85;47.75
79589;BME280;69067;51.930;4.492;2023-07-31T01:53:30;100876.72;;;25.83;47.76
79589;BME280;69067;51.930;4.492;2023-07-31T01:55:56;100852.44;;;25.75;47.76
79589;BME280;69067;51.930;4.492;2023-07-31T01:58:22;100852.22;;;25.76;47.78
79589;BME280;69067;51.930;4.492;2023-07-31T02:00:48;100846.56;;;25.78;47.47
79589;BME280;69067;51.930;4.492;2023-07-31T02:03:14;100836.00;;;25.81;47.13
79589;BME280;69067;51.930;4.492;2023-07-31T02:05:46;100840.25;;;25.77;47.43
79589;BME280;69067;51.930;4.492;2023-07-31T02:08:13;100832.28;;;25.76;47.71
79589;BME280;69067;51.930;4.492;2023-07-31T02:10:39;100835.69;;;25.71;48.08
79589;BME280;69067;51.930;4.492;2023-07-31T02:13:05;100827.78;;;25.63;47.97
79589;BME280;69067;51.930;4.492;2023-07-31T02:15:31;100824.84;;;25.65;47.99
79589;BME280;69067;51.930;4.492;2023-07-31T02:17:57;100823.34;;;25.69;48.50
79589;BME280;69067;51.930;4.492;2023-07-31T02:20:23;100813.34;;;25.56;48.19
79589;BME280;69067;51.930;4.492;2023-07-31T02:22:49;100818.56;;;25.64;47.79
79589;BME280;69067;51.930;4.492;2023-07-31T02:25:14;100823.50;;;25.74;47.26
79589;BME280;69067;51.930;4.492;2023-07-31T02:27:40;100828.78;;;25.69;47.93
79589;BME280;69067;51.930;4.492;2023-07-31T02:30:06;100832.28;;;25.76;47.24
79589;BME280;69067;51.930;4.492;2023-07-31T02:32:32;100814.38;;;25.62;47.87
79589;BME280;69067;51.930;4.492;2023-07-31T02:34:58;100817.09;;;25.62;47.43
79589;BME280;69067;51.930;4.492;2023-07-31T02:37:24;100819.09;;;25.73;47.99
79589;BME280;69067;51.930;4.492;2023-07-31T02:39:51;100830.25;;;25.71;47.84
79589;BME280;69067;51.930;4.492;2023-07-31T02:42:16;100806.00;;;25.57;48.04
79589;BME280;69067;51.930;4.492;2023-07-31T02:44:42;100816.81;;;25.70;47.66
79589;BME280;69067;51.930;4.492;2023-07-31T02:47:08;100817.44;;;25.72;47.35
79589;BME280;69067;51.930;4.492;2023-07-31T02:49:34;100822.91;;;25.72;47.08
79589;BME280;69067;51.930;4.492;2023-07-31T02:52:00;100816.34;;;25.73;47.15
79589;BME280;69067;51.930;4.492;2023-07-31T02:54:26;100817.13;;;25.80;47.69
79589;BME280;69067;51.930;4.492;2023-07-31T02:56:51;100803.97;;;25.77;46.98
79589;BME280;69067;51.930;4.492;2023-07-31T02:59:17;100797.00;;;25.81;47.32
79589;BME280;69067;51.930;4.492;2023-07-31T03:01:44;100781.16;;;25.71;47.95
79589;BME280;69067;51.930;4.492;2023-07-31T03:04:09;100789.22;;;25.84;47.41
79589;BME280;69067;51.930;4.492;2023-07-31T03:06:35;100797.00;;;25.81;47.58
79589;BME280;69067;51.930;4.492;2023-07-31T03:09:01;100787.31;;;25.85;47.25
79589;BME280;69067;51.930;4.492;2023-07-31T03:11:27;100771.91;;;25.72;47.46
79589;BME280;69067;51.930;4.492;2023-07-31T03:13:52;100790.31;;;25.77;47.60
79589;BME280;69067;51.930;4.492;2023-07-31T03:16:19;100775.84;;;25.76;47.32
79589;BME280;69067;51.930;4.492;2023-07-31T03:18:45;100780.91;;;25.73;47.19
79589;BME280;69067;51.930;4.492;2023-07-31T03:21:11;100782.19;;;25.70;47.46
79589;BME280;69067;51.930;4.492;2023-07-31T03:23:37;100791.00;;;25.72;47.19
79589;BME280;69067;51.930;4.492;2023-07-31T03:26:07;100785.97;;;25.69;47.77
79589;BME280;69067;51.930;4.492;2023-07-31T03:28:33;100768.63;;;25.64;47.82
79589;BME280;69067;51.930;4.492;2023-07-31T03:30:59;100784.88;;;25.77;47.67
79589;BME280;69067;51.930;4.492;2023-07-31T03:33:25;100786.25;;;25.86;46.77
79589;BME280;69067;51.930;4.492;2023-07-31T03:35:51;100776.00;;;25.81;46.94
79589;BME280;69067;51.930;4.492;2023-07-31T03:38:18;100778.28;;;25.84;46.73
79589;BME280;69067;51.930;4.492;2023-07-31T03:40:44;100782.13;;;25.77;47.22
79589;BME280;69067;51.930;4.492;2023-07-31T03:43:10;100778.34;;;25.78;47.52
79589;BME280;69067;51.930;4.492;2023-07-31T03:45:36;100767.50;;;25.71;47.08
79589;BME280;69067;51.930;4.492;2023-07-31T03:48:03;100745.16;;;25.56;47.13
79589;BME280;69067;51.930;4.492;2023-07-31T03:50:29;100752.47;;;25.62;47.93
79589;BME280;69067;51.930;4.492;2023-07-31T03:52:55;100740.06;;;25.66;47.16
79589;BME280;69067;51.930;4.492;2023-07-31T03:55:20;100747.38;;;25.72;47.02
79589;BME280;69067;51.930;4.492;2023-07-31T03:57:47;100735.94;;;25.57;47.59
79589;BME280;69067;51.930;4.492;2023-07-31T04:00:13;100755.16;;;25.69;47.47
79589;BME280;69067;51.930;4.492;2023-07-31T04:02:39;100736.28;;;25.67;47.43
79589;BME280;69067;51.930;4.492;2023-07-31T04:05:06;100737.56;;;25.65;47.05
79589;BME280;69067;51.930;4.492;2023-07-31T04:07:32;100731.88;;;25.66;47.16
79589;BME280;69067;51.930;4.492;2023-07-31T04:09:58;100733.31;;;25.69;47.19
79589;BME280;69067;51.930;4.492;2023-07-31T04:12:24;100724.09;;;25.70;47.13
79589;BME280;69067;51.930;4.492;2023-07-31T04:14:50;100726.41;;;25.66;47.14
79589;BME280;69067;51.930;4.492;2023-07-31T04:17:17;100716.63;;;25.59;47.75
79589;BME280;69067;51.930;4.492;2023-07-31T04:19:43;100713.94;;;25.77;47.43
79589;BME280;69067;51.930;4.492;2023-07-31T04:22:09;100718.78;;;25.75;47.43
79589;BME280;69067;51.930;4.492;2023-07-31T04:24:35;100720.59;;;25.81;47.46
79589;BME280;69067;51.930;4.492;2023-07-31T04:27:01;100719.06;;;25.67;47.69
79589;BME280;69067;51.930;4.492;2023-07-31T04:29:26;100714.25;;;25.69;47.75
79589;BME280;69067;51.930;4.492;2023-07-31T04:31:52;100710.44;;;25.70;47.85
79589;BME280;69067;51.930;4.492;2023-07-31T04:34:18;100706.06;;;25.69;48.02
79589;BME280;69067;51.930;4.492;2023-07-31T04:36:43;100695.22;;;25.62;47.28
79589;BME280;69067;51.930;4.492;2023-07-31T04:39:09;100702.78;;;25.60;47.64
79589;BME280;69067;51.930;4.492;2023-07-31T04:41:35;100702.38;;;25.57;47.39
79589;BME280;69067;51.930;4.492;2023-07-31T04:44:01;100691.28;;;25.58;47.23
79589;BME280;69067;51.930;4.492;2023-07-31T04:46:27;100703.00;;;25.59;47.71
79589;BME280;69067;51.930;4.492;2023-07-31T04:48:53;100695.22;;;25.62;47.16
79589;BME280;69067;51.930;4.492;2023-07-31T04:51:18;100692.84;;;25.66;47.69
79589;BME280;69067;51.930;4.492;2023-07-31T04:53:46;100693.09;;;25.64;47.52
79589;BME280;69067;51.930;4.492;2023-07-31T04:56:12;100685.59;;;25.60;48.22
79589;BME280;69067;51.930;4.492;2023-07-31T04:58:38;100688.56;;;25.58;47.76
79589;BME280;69067;51.930;4.492;2023-07-31T05:01:03;100673.09;;;25.45;47.78
79589;BME280;69067;51.930;4.492;2023-07-31T05:03:29;100692.75;;;25.54;47.76
79589;BME280;69067;51.930;4.492;2023-07-31T05:05:55;100676.81;;;25.58;47.56
79589;BME280;69067;51.930;4.492;2023-07-31T05:08:21;100672.19;;;25.58;47.77
79589;BME280;69067;51.930;4.492;2023-07-31T05:10:46;100677.59;;;25.65;47.60
79589;BME280;69067;51.930;4.492;2023-07-31T05:13:12;100674.09;;;25.58;47.77
79589;BME280;69067;51.930;4.492;2023-07-31T05:15:38;100666.28;;;25.61;48.10
79589;BME280;69067;51.930;4.492;2023-07-31T05:18:03;100674.59;;;25.66;47.62
79589;BME280;69067;51.930;4.492;2023-07-31T05:20:29;100662.09;;;25.59;48.04
79589;BME280;69067;51.930;4.492;2023-07-31T05:22:55;100677.78;;;25.63;47.36
79589;BME280;69067;51.930;4.492;2023-07-31T05:25:21;100655.19;;;25.56;47.72
79589;BME280;69067;51.930;4.492;2023-07-31T05:27:47;100669.03;;;25.55;48.26
79589;BME280;69067;51.930;4.492;2023-07-31T05:30:12;100656.63;;;25.59;47.94
79589;BME280;69067;51.930;4.492;2023-07-31T05:32:38;100655.28;;;25.68;47.77
79589;BME280;69067;51.930;4.492;2023-07-31T05:35:04;100643.84;;;25.59;47.72
79589;BME280;69067;51.930;4.492;2023-07-31T05:37:30;100649.72;;;25.56;47.74
79589;BME280;69067;51.930;4.492;2023-07-31T05:39:57;100659.97;;;25.61;47.63
79589;BME280;69067;51.930;4.492;2023-07-31T05:42:23;100651.19;;;25.59;47.77
79589;BME280;69067;51.930;4.492;2023-07-31T05:44:49;100650.75;;;25.62;47.43
79589;BME280;69067;51.930;4.492;2023-07-31T05:47:15;100646.81;;;25.58;48.00
79589;BME280;69067;51.930;4.492;2023-07-31T05:49:40;100647.41;;;25.60;48.14
79589;BME280;69067;51.930;4.492;2023-07-31T05:52:06;100641.38;;;25.58;47.88
79589;BME280;69067;51.930;4.492;2023-07-31T05:54:33;100642.25;;;25.52;48.47
79589;BME280;69067;51.930;4.492;2023-07-31T05:56:59;100632.13;;;25.52;48.76
79589;BME280;69067;51.930;4.492;2023-07-31T05:59:24;100632.97;;;25.52;47.93
79589;BME280;69067;51.930;4.492;2023-07-31T06:01:50;100631.56;;;25.50;48.00
79589;BME280;69067;51.930;4.492;2023-07-31T06:04:16;100635.25;;;25.56;47.89
79589;BME280;69067;51.930;4.492;2023-07-31T06:06:41;100628.97;;;25.55;48.42
79589;BME280;69067;51.930;4.492;2023-07-31T06:09:07;100629.41;;;25.52;47.80
79589;BME280;69067;51.930;4.492;2023-07-31T06:11:33;100631.91;;;25.54;47.97
79589;BME280;69067;51.930;4.492;2023-07-31T06:13:59;100636.09;;;25.56;47.86
79589;BME280;69067;51.930;4.492;2023-07-31T06:16:25;100628.97;;;25.55;47.76
79589;BME280;69067;51.930;4.492;2023-07-31T06:18:52;100608.50;;;25.46;48.36
79589;BME280;69067;51.930;4.492;2023-07-31T06:21:18;100613.88;;;25.52;48.33
79589;BME280;69067;51.930;4.492;2023-07-31T06:23:44;100613.00;;;25.59;47.90
79589;BME280;69067;51.930;4.492;2023-07-31T06:26:09;100616.75;;;25.64;47.78
79589;BME280;69067;51.930;4.492;2023-07-31T06:28:35;100599.16;;;25.60;47.81
79589;BME280;69067;51.930;4.492;2023-07-31T06:31:01;100600.88;;;25.55;48.17
79589;BME280;69067;51.930;4.492;2023-07-31T06:33:27;100602.63;;;25.49;48.22
79589;BME280;69067;51.930;4.492;2023-07-31T06:35:53;100610.91;;;25.61;48.11
79589;BME280;69067;51.930;4.492;2023-07-31T06:38:24;100607.03;;;25.68;48.22
79589;BME280;69067;51.930;4.492;2023-07-31T06:40:51;100601.34;;;25.52;48.08
79589;BME280;69067;51.930;4.492;2023-07-31T06:43:17;100601.66;;;25.62;47.83
79589;BME280;69067;51.930;4.492;2023-07-31T06:45:42;100600.66;;;25.56;48.43
79589;BME280;69067;51.930;4.492;2023-07-31T06:48:08;100602.41;;;25.50;48.40
79589;BME280;69067;51.930;4.492;2023-07-31T06:50:34;100599.06;;;25.48;48.20
79589;BME280;69067;51.930;4.492;2023-07-31T06:53:00;100590.69;;;25.68;48.34
79589;BME280;69067;51.930;4.492;2023-07-31T06:55:26;100595.59;;;25.60;48.27
79589;BME280;69067;51.930;4.492;2023-07-31T06:57:54;100583.63;;;25.61;48.53
79589;BME280;69067;51.930;4.492;2023-07-31T07:00:22;100593.13;;;25.58;48.41
79589;BME280;69067;51.930;4.492;2023-07-31T07:02:49;100591.66;;;25.74;48.72
79589;BME280;69067;51.930;4.492;2023-07-31T07:05:17;100587.59;;;25.65;48.08
79589;BME280;69067;51.930;4.492;2023-07-31T07:07:43;100584.59;;;25.66;48.18
79589;BME280;69067;51.930;4.492;2023-07-31T07:10:09;100592.13;;;25.71;48.94
79589;BME280;69067;51.930;4.492;2023-07-31T07:12:35;100589.75;;;25.74;48.13
79589;BME280;69067;51.930;4.492;2023-07-31T07:15:01;100598.25;;;25.66;49.06
79589;BME280;69067;51.930;4.492;2023-07-31T07:17:29;100595.06;;;25.69;49.22
79589;BME280;69067;51.930;4.492;2023-07-31T07:19:57;100593.63;;;25.67;48.76
79589;BME280;69067;51.930;4.492;2023-07-31T07:22:23;100603.34;;;25.63;49.25
79589;BME280;69067;51.930;4.492;2023-07-31T07:24:49;100579.00;;;25.61;49.22
79589;BME280;69067;51.930;4.492;2023-07-31T07:27:15;100589.47;;;25.64;49.36
79589;BME280;69067;51.930;4.492;2023-07-31T07:29:41;100583.47;;;25.56;49.40
79589;BME280;69067;51.930;4.492;2023-07-31T07:32:07;100600.03;;;25.54;49.69
79589;BME280;69067;51.930;4.492;2023-07-31T07:34:33;100594.53;;;25.61;49.28
79589;BME280;69067;51.930;4.492;2023-07-31T07:36:59;100591.38;;;25.64;49.80
79589;BME280;69067;51.930;4.492;2023-07-31T07:39:24;100594.47;;;25.67;49.50
79589;BME280;69067;51.930;4.492;2023-07-31T07:41:50;100591.19;;;25.59;49.48
79589;BME280;69067;51.930;4.492;2023-07-31T07:44:16;100583.41;;;25.62;49.62
79589;BME280;69067;51.930;4.492;2023-07-31T07:46:42;100588.78;;;25.69;49.55
79589;BME280;69067;51.930;4.492;2023-07-31T07:49:08;100595.84;;;25.58;49.78
79589;BME280;69067;51.930;4.492;2023-07-31T07:51:34;100600.22;;;25.59;49.61
79589;BME280;69067;51.930;4.492;2023-07-31T07:54:00;100588.69;;;25.57;49.76
79589;BME280;69067;51.930;4.492;2023-07-31T07:56:27;100587.41;;;25.60;50.37
79589;BME280;69067;51.930;4.492;2023-07-31T07:58:53;100580.50;;;25.57;49.77
79589;BME280;69067;51.930;4.492;2023-07-31T08:01:19;100582.41;;;25.57;50.26
79589;BME280;69067;51.930;4.492;2023-07-31T08:03:46;100574.66;;;25.54;50.04
79589;BME280;69067;51.930;4.492;2023-07-31T08:06:13;100583.47;;;25.56;50.19
79589;BME280;69067;51.930;4.492;2023-07-31T08:08:40;100576.94;;;25.57;50.23
79589;BME280;69067;51.930;4.492;2023-07-31T08:11:05;100584.50;;;25.55;50.03
79589;BME280;69067;51.930;4.492;2023-07-31T08:13:31;100573.59;;;25.55;49.98
79589;BME280;69067;51.930;4.492;2023-07-31T08:15:57;100569.06;;;25.48;50.57
79589;BME280;69067;51.930;4.492;2023-07-31T08:18:23;100554.09;;;25.58;49.89
79589;BME280;69067;51.930;4.492;2023-07-31T08:20:49;100568.72;;;25.63;50.31
79589;BME280;69067;51.930;4.492;2023-07-31T08:23:14;100562.69;;;25.55;50.04
79589;BME280;69067;51.930;4.492;2023-07-31T08:25:40;100572.72;;;25.61;49.83
79589;BME280;69067;51.930;4.492;2023-07-31T08:28:06;100576.75;;;25.58;49.81
79589;BME280;69067;51.930;4.492;2023-07-31T08:30:33;100566.59;;;25.65;50.02
79589;BME280;69067;51.930;4.492;2023-07-31T08:32:59;100571.50;;;25.57;49.68
79589;BME280;69067;51.930;4.492;2023-07-31T08:35:26;100569.22;;;25.54;49.94
79589;BME280;69067;51.930;4.492;2023-07-31T08:37:55;100572.78;;;25.54;50.63
79589;BME280;69067;51.930;4.492;2023-07-31T08:40:21;100574.53;;;25.48;50.24
79589;BME280;69067;51.930;4.492;2023-07-31T08:42:54;100572.25;;;25.45;50.42
79589;BME280;69067;51.930;4.492;2023-07-31T08:45:28;100580.34;;;25.52;49.97
79589;BME280;69067;51.930;4.492;2023-07-31T08:47:55;100572.78;;;25.54;50.12
79589;BME280;69067;51.930;4.492;2023-07-31T08:50:23;100572.41;;;25.50;50.74
79589;BME280;69067;51.930;4.492;2023-07-31T08:52:51;100566.25;;;25.55;50.67
79589;BME280;69067;51.930;4.492;2023-07-31T08:55:18;100571.50;;;25.57;50.05
79589;BME280;69067;51.930;4.492;2023-07-31T08:57:51;100573.25;;;25.51;50.63
79589;BME280;69067;51.930;4.492;2023-07-31T09:00:20;100563.53;;;25.55;50.70
79589;BME280;69067;51.930;4.492;2023-07-31T09:02:57;100562.34;;;25.51;50.57
79589;BME280;69067;51.930;4.492;2023-07-31T09:05:29;100559.56;;;25.58;50.67
79589;BME280;69067;51.930;4.492;2023-07-31T09:07:57;100569.59;;;25.57;50.90
79589;BME280;69067;51.930;4.492;2023-07-31T09:10:24;100560.41;;;25.58;50.50
79589;BME280;69067;51.930;4.492;2023-07-31T09:12:53;100566.44;;;25.60;51.05
79589;BME280;69067;51.930;4.492;2023-07-31T09:15:19;100552.50;;;25.50;50.90
79589;BME280;69067;51.930;4.492;2023-07-31T09:17:45;100564.81;;;25.52;50.83
79589;BME280;69067;51.930;4.492;2023-07-31T09:20:20;100566.59;;;25.65;50.77
79589;BME280;69067;51.930;4.492;2023-07-31T09:22:48;100561.03;;;25.54;51.25
79589;BME280;69067;51.930;4.492;2023-07-31T09:25:19;100562.09;;;25.52;50.92
79589;BME280;69067;51.930;4.492;2023-07-31T09:27:56;100557.31;;;25.48;50.92
79589;BME280;69067;51.930;4.492;2023-07-31T09:30:23;100558.16;;;25.48;51.35
79589;BME280;69067;51.930;4.492;2023-07-31T09:32:51;100559.34;;;25.52;50.58
79589;BME280;69067;51.930;4.492;2023-07-31T09:35:30;100563.53;;;25.55;50.86
79589;BME280;69067;51.930;4.492;2023-07-31T09:38:20;100550.13;;;25.54;50.75
79589;BME280;69067;51.930;4.492;2023-07-31T09:40:47;100549.41;;;25.65;51.01
79589;BME280;69067;51.930;4.492;2023-07-31T09:43:18;100546.81;;;25.52;51.40
79589;BME280;69067;51.930;4.492;2023-07-31T09:45:45;100548.44;;;25.52;51.53
79589;BME280;69067;51.930;4.492;2023-07-31T09:48:13;100549.50;;;25.58;50.87
79589;BME280;69067;51.930;4.492;2023-07-31T09:50:48;100548.00;;;25.56;51.17
79589;BME280;69067;51.930;4.492;2023-07-31T09:53:15;100548.84;;;25.56;51.11
79589;BME280;69067;51.930;4.492;2023-07-31T09:55:42;100554.31;;;25.56;50.60
79589;BME280;69067;51.930;4.492;2023-07-31T09:58:10;100546.81;;;25.52;51.36
79589;BME280;69067;51.930;4.492;2023-07-31T10:00:37;100545.72;;;25.52;51.49
79589;BME280;69067;51.930;4.492;2023-07-31T10:03:10;100551.50;;;25.44;51.28
79589;BME280;69067;51.930;4.492;2023-07-31T10:05:40;100548.22;;;25.54;50.87
79589;BME280;69067;51.930;4.492;2023-07-31T10:08:10;100538.63;;;25.52;51.60
79589;BME280;69067;51.930;4.492;2023-07-31T10:10:44;100559.97;;;25.55;50.93
79589;BME280;69067;51.930;4.492;2023-07-31T10:13:12;100543.63;;;25.36;51.47
79589;BME280;69067;51.930;4.492;2023-07-31T10:15:39;100546.28;;;25.43;51.75
79589;BME280;69067;51.930;4.492;2023-07-31T10:18:07;100547.47;;;25.47;51.70
79589;BME280;69067;51.930;4.492;2023-07-31T10:20:33;100547.03;;;25.50;51.74
79589;BME280;69067;51.930;4.492;2023-07-31T10:23:00;100548.94;;;25.49;50.99
79589;BME280;69067;51.930;4.492;2023-07-31T10:25:26;100556.50;;;25.66;51.19
79589;BME280;69067;51.930;4.492;2023-07-31T10:27:54;100540.22;;;25.59;51.55
79589;BME280;69067;51.930;4.492;2023-07-31T10:30:28;100547.69;;;25.45;51.03
79589;BME280;69067;51.930;4.492;2023-07-31T10:32:56;100557.03;;;25.56;51.02
79589;BME280;69067;51.930;4.492;2023-07-31T10:35:22;100558.38;;;25.47;51.55
79589;BME280;69067;51.930;4.492;2023-07-31T10:37:48;100544.38;;;25.43;51.59
79589;BME280;69067;51.930;4.492;2023-07-31T10:40:19;100543.09;;;25.46;51.81
79589;BME280;69067;51.930;4.492;2023-07-31T10:42:56;100537.13;;;25.37;51.75
79589;BME280;69067;51.930;4.492;2023-07-31T10:48:16;100539.53;;;25.45;51.47
79589;BME280;69067;51.930;4.492;2023-07-31T10:50:55;100545.22;;;25.44;51.82
79589;BME280;69067;51.930;4.492;2023-07-31T10:53:31;100541.81;;;25.48;51.22
79589;BME280;69067;51.930;4.492;2023-07-31T10:56:03;100544.75;;;25.47;51.81
79589;BME280;69067;51.930;4.492;2023-07-31T10:58:30;100536.28;;;25.55;51.14
79589;BME280;69067;51.930;4.492;2023-07-31T11:01:02;100537.94;;;25.56;51.82
79589;BME280;69067;51.930;4.492;2023-07-31T11:03:48;100530.41;;;25.58;51.34
79589;BME280;69067;51.930;4.492;2023-07-31T11:06:18;100523.56;;;25.49;51.78
79589;BME280;69067;51.930;4.492;2023-07-31T11:08:46;100528.78;;;25.50;51.63
79589;BME280;69067;51.930;4.492;2023-07-31T11:11:15;100518.94;;;25.49;51.29
79589;BME280;69067;51.930;4.492;2023-07-31T11:13:51;100525.38;;;25.55;51.87
79589;BME280;69067;51.930;4.492;2023-07-31T11:16:20;100513.47;;;25.49;51.86
79589;BME280;69067;51.930;4.492;2023-07-31T11:18:48;100508.41;;;25.53;51.64
79589;BME280;69067;51.930;4.492;2023-07-31T11:21:16;100506.97;;;25.50;51.54
79589;BME280;69067;51.930;4.492;2023-07-31T11:23:48;100508.13;;;25.61;51.79
79589;BME280;69067;51.930;4.492;2023-07-31T11:26:15;100516.00;;;25.51;51.93
79589;BME280;69067;51.930;4.492;2023-07-31T11:28:41;100499.38;;;25.52;52.04
79589;BME280;69067;51.930;4.492;2023-07-31T11:31:10;100498.09;;;25.55;51.63
79589;BME280;69067;51.930;4.492;2023-07-31T11:33:36;100493.56;;;25.49;51.74
79589;BME280;69067;51.930;4.492;2023-07-31T11:36:02;100502.81;;;25.48;51.62
79589;BME280;69067;51.930;4.492;2023-07-31T11:38:30;100515.28;;;25.56;51.91
79589;BME280;69067;51.930;4.492;2023-07-31T11:40:59;100507.34;;;25.54;52.65
79589;BME280;69067;51.930;4.492;2023-07-31T11:43:28;100506.06;;;25.57;51.89
79589;BME280;69067;51.930;4.492;2023-07-31T11:45:56;100506.06;;;25.57;52.06
79589;BME280;69067;51.930;4.492;2023-07-31T11:48:29;100513.22;;;25.58;52.16
79589;BME280;69067;51.930;4.492;2023-07-31T11:51:01;100529.97;;;25.55;52.34
79589;BME280;69067;51.930;4.492;2023-07-31T11:56:21;100527.13;;;25.49;52.00
79589;BME280;69067;51.930;4.492;2023-07-31T11:59:00;100515.38;;;25.49;52.01
79589;BME280;69067;51.930;4.492;2023-07-31T12:01:29;100510.75;;;25.49;51.81
79589;BME280;69067;51.930;4.492;2023-07-31T12:03:56;100499.31;;;25.59;51.42
79589;BME280;69067;51.930;4.492;2023-07-31T12:06:35;100497.75;;;25.52;51.73
79589;BME280;69067;51.930;4.492;2023-07-31T12:09:05;100490.63;;;25.50;52.02
79589;BME280;69067;51.930;4.492;2023-07-31T12:11:31;100506.16;;;25.50;52.18
79589;BME280;69067;51.930;4.492;2023-07-31T12:13:57;100500.22;;;25.53;52.38
79589;BME280;69067;51.930;4.492;2023-07-31T12:16:26;100486.44;;;25.48;52.88
79589;BME280;69067;51.930;4.492;2023-07-31T12:18:52;100489.31;;;25.53;52.03
79589;BME280;69067;51.930;4.492;2023-07-31T12:21:19;100481.13;;;25.53;52.45
79589;BME280;69067;51.930;4.492;2023-07-31T12:23:45;100477.06;;;25.44;52.77
79589;BME280;69067;51.930;4.492;2023-07-31T12:26:15;100472.59;;;25.49;51.96
79589;BME280;69067;51.930;4.492;2023-07-31T12:28:44;100485.47;;;25.61;52.27
79589;BME280;69067;51.930;4.492;2023-07-31T12:31:20;100486.00;;;25.51;52.51
79589;BME280;69067;51.930;4.492;2023-07-31T12:33:48;100482.44;;;25.50;52.39
79589;BME280;69067;51.930;4.492;2023-07-31T12:36:18;100477.06;;;25.44;52.96
79589;BME280;69067;51.930;4.492;2023-07-31T12:38:46;100464.63;;;25.48;52.38
79589;BME280;69067;51.930;4.492;2023-07-31T12:41:12;100463.44;;;25.44;52.54
79589;BME280;69067;51.930;4.492;2023-07-31T12:43:41;100458.13;;;25.49;52.35
79589;BME280;69067;51.930;4.492;2023-07-31T12:46:08;100457.28;;;25.48;52.37
79589;BME280;69067;51.930;4.492;2023-07-31T12:48:35;100480.25;;;25.59;52.08
79589;BME280;69067;51.930;4.492;2023-07-31T12:51:02;100478.78;;;25.57;52.01
79589;BME280;69067;51.930;4.492;2023-07-31T12:53:29;100465.03;;;25.52;52.61
79589;BME280;69067;51.930;4.492;2023-07-31T12:55:57;100471.88;;;25.54;52.44
79589;BME280;69067;51.930;4.492;2023-07-31T12:58:23;100468.72;;;25.57;52.39
79589;BME280;69067;51.930;4.492;2023-07-31T13:00:50;100467.88;;;25.57;52.73